sensor_id;sensor_type;location;lat;lon;timestamp;pressure;altitude;pressure_sealevel;temperature;humidity
9261;BME280;4667;42.726;23.252;2022-11-22T15:41:49;94369.78;;;8.43;nan
9261;BME280;4667;42.726;23.252;2022-11-22T15:44:18;94379.06;;;8.39;nan
9261;BME280;4667;42.726;23.252;2022-11-22T15:46:45;94389.88;;;8.25;nan
9261;BME280;4667;42.726;23.252;2022-11-22T15:49:15;94382.91;;;8.38;nan
9261;BME280;4667;42.726;23.252;2022-11-22T15:51:51;94379.81;;;8.39;nan
9261;BME280;4667;42.726;23.252;2022-11-22T15:54:21;94369.81;;;8.40;nan
9261;BME280;4667;42.726;23.252;2022-11-22T15:56:53;94361.31;;;8.41;nan
9261;BME280;4667;42.726;23.252;2022-11-22T15:59:28;94365.19;;;8.37;nan
9261;BME280;4667;42.726;23.252;2022-11-22T16:01:57;94363.28;;;8.34;nan
9261;BME280;4667;42.726;23.252;2022-11-22T16:04:27;94339.72;;;8.45;nan
9261;BME280;4667;42.726;23.252;2022-11-22T16:06:56;94362.09;;;8.35;nan
9261;BME280;4667;42.726;23.252;2022-11-22T16:09:28;94334.34;;;8.38;nan
9261;BME280;4667;42.726;23.252;2022-11-22T16:12:00;94332.78;;;8.40;nan
9261;BME280;4667;42.726;23.252;2022-11-22T16:14:51;94332.41;;;8.38;nan
9261;BME280;4667;42.726;23.252;2022-11-22T16:17:29;94322.41;;;8.39;nan
9261;BME280;4667;42.726;23.252;2022-11-22T16:20:30;94337.03;;;8.34;nan
9261;BME280;4667;42.726;23.252;2022-11-22T16:23:23;94332.81;;;8.37;nan
9261;BME280;4667;42.726;23.252;2022-11-22T16:25:59;94318.19;;;8.31;nan
9261;BME280;4667;42.726;23.252;2022-11-22T16:28:39;94332.81;;;8.30;nan
9261;BME280;4667;42.726;23.252;2022-11-22T16:31:16;94301.59;;;8.29;nan
9261;BME280;4667;42.726;23.252;2022-11-22T16:33:47;94316.66;;;8.23;nan
9261;BME280;4667;42.726;23.252;2022-11-22T16:36:16;94296.25;;;8.22;nan
9261;BME280;4667;42.726;23.252;2022-11-22T16:38:44;94293.91;;;8.24;nan
9261;BME280;4667;42.726;23.252;2022-11-22T16:41:18;94294.78;;;8.06;nan
9261;BME280;4667;42.726;23.252;2022-11-22T16:43:47;94284.34;;;8.15;nan
9261;BME280;4667;42.726;23.252;2022-11-22T16:46:15;94277.78;;;8.16;nan
9261;BME280;4667;42.726;23.252;2022-11-22T16:48:43;94280.47;;;8.16;nan
9261;BME280;4667;42.726;23.252;2022-11-22T16:51:14;94299.72;;;8.22;nan
9261;BME280;4667;42.726;23.252;2022-11-22T16:53:48;94278.13;;;8.26;nan
9261;BME280;4667;42.726;23.252;2022-11-22T16:56:19;94286.59;;;8.24;nan
9261;BME280;4667;42.726;23.252;2022-11-22T16:58:54;94274.31;;;8.19;nan
9261;BME280;4667;42.726;23.252;2022-11-22T17:01:23;94278.91;;;8.23;nan
9261;BME280;4667;42.726;23.252;2022-11-22T17:03:54;94273.56;;;8.15;nan
9261;BME280;4667;42.726;23.252;2022-11-22T17:06:28;94271.28;;;8.07;nan
9261;BME280;4667;42.726;23.252;2022-11-22T17:09:17;94271.34;;;7.93;nan
9261;BME280;4667;42.726;23.252;2022-11-22T17:11:47;94268.97;;;8.05;nan
9261;BME280;4667;42.726;23.252;2022-11-22T17:14:41;94252.84;;;7.98;nan
9261;BME280;4667;42.726;23.252;2022-11-22T17:17:13;94241.19;;;8.15;nan
9261;BME280;4667;42.726;23.252;2022-11-22T17:19:46;94245.97;;;7.87;nan
9261;BME280;4667;42.726;23.252;2022-11-22T17:22:20;94223.91;;;8.09;nan
9261;BME280;4667;42.726;23.252;2022-11-22T17:24:47;94242.06;;;7.98;nan
9261;BME280;4667;42.726;23.252;2022-11-22T17:27:15;94232.78;;;8.03;nan
9261;BME280;4667;42.726;23.252;2022-11-22T17:29:44;94247.06;;;7.96;nan
9261;BME280;4667;42.726;23.252;2022-11-22T17:32:11;94241.19;;;8.12;nan
9261;BME280;4667;42.726;23.252;2022-11-22T17:34:40;94226.25;;;8.00;nan
9261;BME280;4667;42.726;23.252;2022-11-22T17:37:10;94220.38;;;8.16;nan
9261;BME280;4667;42.726;23.252;2022-11-22T17:39:39;94206.47;;;8.21;nan
9261;BME280;4667;42.726;23.252;2022-11-22T17:42:07;94217.31;;;8.10;nan
9261;BME280;4667;42.726;23.252;2022-11-22T17:44:36;94217.69;;;8.12;nan
9261;BME280;4667;42.726;23.252;2022-11-22T17:47:05;94201.56;;;8.05;nan
9261;BME280;4667;42.726;23.252;2022-11-22T17:49:33;94209.69;;;8.02;nan
9261;BME280;4667;42.726;23.252;2022-11-22T17:52:00;94198.84;;;8.09;nan
9261;BME280;4667;42.726;23.252;2022-11-22T17:54:27;94198.94;;;7.98;nan
9261;BME280;4667;42.726;23.252;2022-11-22T17:56:56;94190.00;;;8.08;nan
9261;BME280;4667;42.726;23.252;2022-11-22T17:59:23;94188.41;;;8.11;nan
9261;BME280;4667;42.726;23.252;2022-11-22T18:01:50;94173.81;;;8.08;nan
9261;BME280;4667;42.726;23.252;2022-11-22T18:04:18;94164.91;;;8.15;nan
9261;BME280;4667;42.726;23.252;2022-11-22T18:06:47;94177.91;;;8.31;nan
9261;BME280;4667;42.726;23.252;2022-11-22T18:09:19;94171.34;;;8.32;nan
9261;BME280;4667;42.726;23.252;2022-11-22T18:12:05;94171.31;;;8.35;nan
9261;BME280;4667;42.726;23.252;2022-11-22T18:14:32;94162.06;;;8.40;nan
9261;BME280;4667;42.726;23.252;2022-11-22T18:17:02;94175.22;;;8.24;nan
9261;BME280;4667;42.726;23.252;2022-11-22T18:19:30;94145.91;;;8.33;nan
9261;BME280;4667;42.726;23.252;2022-11-22T18:21:58;94154.78;;;8.33;nan
9261;BME280;4667;42.726;23.252;2022-11-22T18:24:26;94149.41;;;8.23;nan
9261;BME280;4667;42.726;23.252;2022-11-22T18:26:53;94161.44;;;8.14;nan
9261;BME280;4667;42.726;23.252;2022-11-22T18:29:20;94148.25;;;8.24;nan
9261;BME280;4667;42.726;23.252;2022-11-22T18:31:46;94160.25;;;8.19;nan
9261;BME280;4667;42.726;23.252;2022-11-22T18:34:14;94160.97;;;8.30;nan
9261;BME280;4667;42.726;23.252;2022-11-22T18:36:42;94136.69;;;8.23;nan
9261;BME280;4667;42.726;23.252;2022-11-22T18:39:10;94143.38;;;8.08;nan
9261;BME280;4667;42.726;23.252;2022-11-22T18:41:37;94152.94;;;8.19;nan
9261;BME280;4667;42.726;23.252;2022-11-22T18:44:04;94157.88;;;8.28;nan
9261;BME280;4667;42.726;23.252;2022-11-22T18:46:32;94142.84;;;8.27;nan
9261;BME280;4667;42.726;23.252;2022-11-22T18:49:01;94152.69;;;8.00;nan
9261;BME280;4667;42.726;23.252;2022-11-22T18:51:31;94138.63;;;8.26;nan
9261;BME280;4667;42.726;23.252;2022-11-22T18:54:00;94133.63;;;8.25;nan
9261;BME280;4667;42.726;23.252;2022-11-22T18:56:27;94131.41;;;8.12;nan
9261;BME280;4667;42.726;23.252;2022-11-22T18:58:54;94126.03;;;8.09;nan
9261;BME280;4667;42.726;23.252;2022-11-22T19:01:21;94142.69;;;7.97;nan
9261;BME280;4667;42.726;23.252;2022-11-22T19:03:50;94131.41;;;8.12;nan
9261;BME280;4667;42.726;23.252;2022-11-22T19:06:18;94141.06;;;8.10;nan
9261;BME280;4667;42.726;23.252;2022-11-22T19:08:46;94165.72;;;8.08;nan
9261;BME280;4667;42.726;23.252;2022-11-22T19:11:15;94153.22;;;8.29;nan
9261;BME280;4667;42.726;23.252;2022-11-22T19:13:43;94162.09;;;8.33;nan
9261;BME280;4667;42.726;23.252;2022-11-22T19:16:13;94182.91;;;8.32;nan
9261;BME280;4667;42.726;23.252;2022-11-22T19:18:41;94182.16;;;8.28;nan
9261;BME280;4667;42.726;23.252;2022-11-22T19:21:11;94177.47;;;8.39;nan
9261;BME280;4667;42.726;23.252;2022-11-22T19:23:38;94157.44;;;8.37;nan
9261;BME280;4667;42.726;23.252;2022-11-22T19:26:08;94151.72;;;8.31;nan
9261;BME280;4667;42.726;23.252;2022-11-22T19:28:40;94155.47;;;8.41;nan
9261;BME280;4667;42.726;23.252;2022-11-22T19:31:11;94145.38;;;8.52;nan
9261;BME280;4667;42.726;23.252;2022-11-22T19:33:39;94170.00;;;8.57;nan
9261;BME280;4667;42.726;23.252;2022-11-22T19:36:10;94170.72;;;8.58;nan
9261;BME280;4667;42.726;23.252;2022-11-22T19:38:37;94186.81;;;8.72;nan
9261;BME280;4667;42.726;23.252;2022-11-22T19:41:06;94174.53;;;8.68;nan
9261;BME280;4667;42.726;23.252;2022-11-22T19:43:33;94169.13;;;8.64;nan
9261;BME280;4667;42.726;23.252;2022-11-22T19:46:04;94160.22;;;8.71;nan
9261;BME280;4667;42.726;23.252;2022-11-22T19:58:27;94130.44;;;8.81;nan
9261;BME280;4667;42.726;23.252;2022-11-22T20:01:04;94132.38;;;8.77;nan
9261;BME280;4667;42.726;23.252;2022-11-22T20:03:32;94129.34;;;8.75;nan
9261;BME280;4667;42.726;23.252;2022-11-22T20:06:02;94134.56;;;8.89;nan
9261;BME280;4667;42.726;23.252;2022-11-22T20:08:30;94138.91;;;8.80;nan
9261;BME280;4667;42.726;23.252;2022-11-22T20:11:01;94124.28;;;8.77;nan
9261;BME280;4667;42.726;23.252;2022-11-22T20:13:29;94111.53;;;8.81;nan
9261;BME280;4667;42.726;23.252;2022-11-22T20:16:16;94094.59;;;8.77;nan
9261;BME280;4667;42.726;23.252;2022-11-22T20:18:51;94083.84;;;8.70;nan
9261;BME280;4667;42.726;23.252;2022-11-22T20:48:41;94084.59;;;8.74;nan
9261;BME280;4667;42.726;23.252;2022-11-22T20:53:36;94079.28;;;8.67;nan
9261;BME280;4667;42.726;23.252;2022-11-22T20:56:04;94075.94;;;8.56;nan
9261;BME280;4667;42.726;23.252;2022-11-22T20:58:31;94076.50;;;8.74;nan
9261;BME280;4667;42.726;23.252;2022-11-22T21:00:58;94051.44;;;8.74;nan
9261;BME280;4667;42.726;23.252;2022-11-22T21:03:34;94037.22;;;8.70;nan
9261;BME280;4667;42.726;23.252;2022-11-22T21:06:22;94043.03;;;8.68;nan
9261;BME280;4667;42.726;23.252;2022-11-22T21:08:50;94060.06;;;8.62;nan
9261;BME280;4667;42.726;23.252;2022-11-22T21:11:19;94070.22;;;8.47;nan
9261;BME280;4667;42.726;23.252;2022-11-22T21:13:47;94070.38;;;8.29;nan
9261;BME280;4667;42.726;23.252;2022-11-22T21:16:15;94061.63;;;8.59;nan
9261;BME280;4667;42.726;23.252;2022-11-22T21:18:43;94055.19;;;8.49;nan
9261;BME280;4667;42.726;23.252;2022-11-22T21:21:11;94058.56;;;8.57;nan
9261;BME280;4667;42.726;23.252;2022-11-22T21:23:49;94064.28;;;8.63;nan
9261;BME280;4667;42.726;23.252;2022-11-22T21:26:16;94078.56;;;8.63;nan
9261;BME280;4667;42.726;23.252;2022-11-22T21:28:46;94084.28;;;8.69;nan
9261;BME280;4667;42.726;23.252;2022-11-22T21:31:28;94084.31;;;8.65;nan
9261;BME280;4667;42.726;23.252;2022-11-22T21:33:55;94096.13;;;8.78;nan
9261;BME280;4667;42.726;23.252;2022-11-22T21:36:27;94098.03;;;8.81;nan
9261;BME280;4667;42.726;23.252;2022-11-22T21:38:56;94100.22;;;8.93;nan
9261;BME280;4667;42.726;23.252;2022-11-22T21:41:23;94104.75;;;9.00;nan
9261;BME280;4667;42.726;23.252;2022-11-22T21:43:53;94109.41;;;8.99;nan
9261;BME280;4667;42.726;23.252;2022-11-22T21:46:23;94105.97;;;8.58;nan
9261;BME280;4667;42.726;23.252;2022-11-22T21:48:50;94087.56;;;8.83;nan
9261;BME280;4667;42.726;23.252;2022-11-22T21:51:21;94069.38;;;8.91;nan
9261;BME280;4667;42.726;23.252;2022-11-22T21:54:11;94078.16;;;8.98;nan
9261;BME280;4667;42.726;23.252;2022-11-22T21:56:38;94077.03;;;8.96;nan
9261;BME280;4667;42.726;23.252;2022-11-22T21:59:05;94061.88;;;8.72;nan
9261;BME280;4667;42.726;23.252;2022-11-22T22:01:32;94059.94;;;8.72;nan
9261;BME280;4667;42.726;23.252;2022-11-22T22:04:02;94060.22;;;8.81;nan
9261;BME280;4667;42.726;23.252;2022-11-22T22:06:32;94056.84;;;8.74;nan
9261;BME280;4667;42.726;23.252;2022-11-22T22:09:07;94061.84;;;8.75;nan
9261;BME280;4667;42.726;23.252;2022-11-22T22:11:38;94046.06;;;8.70;nan
9261;BME280;4667;42.726;23.252;2022-11-22T22:14:07;94028.25;;;8.76;nan
9261;BME280;4667;42.726;23.252;2022-11-22T22:16:35;94032.25;;;8.65;nan
9261;BME280;4667;42.726;23.252;2022-11-22T22:19:05;94030.28;;;8.69;nan
9261;BME280;4667;42.726;23.252;2022-11-22T22:21:35;94023.31;;;8.71;nan
9261;BME280;4667;42.726;23.252;2022-11-22T22:24:02;94016.97;;;8.54;nan
9261;BME280;4667;42.726;23.252;2022-11-22T22:26:38;94017.97;;;8.68;nan
9261;BME280;4667;42.726;23.252;2022-11-22T22:29:19;94020.97;;;8.73;nan
9261;BME280;4667;42.726;23.252;2022-11-22T22:31:47;94022.47;;;8.78;nan
9261;BME280;4667;42.726;23.252;2022-11-22T22:34:14;94020.16;;;8.76;nan
9261;BME280;4667;42.726;23.252;2022-11-22T22:36:42;94027.47;;;8.79;nan
9261;BME280;4667;42.726;23.252;2022-11-22T22:39:09;94025.84;;;8.85;nan
9261;BME280;4667;42.726;23.252;2022-11-22T22:41:38;94026.22;;;8.87;nan
9261;BME280;4667;42.726;23.252;2022-11-22T22:44:06;94023.94;;;8.82;nan
9261;BME280;4667;42.726;23.252;2022-11-22T22:46:33;94021.78;;;8.70;nan
9261;BME280;4667;42.726;23.252;2022-11-22T22:49:00;94025.47;;;8.83;nan
9261;BME280;4667;42.726;23.252;2022-11-22T22:51:32;94027.72;;;8.88;nan
9261;BME280;4667;42.726;23.252;2022-11-22T22:53:59;94023.19;;;8.82;nan
9261;BME280;4667;42.726;23.252;2022-11-22T22:56:27;94016.59;;;8.86;nan
9261;BME280;4667;42.726;23.252;2022-11-22T22:58:56;94014.28;;;8.85;nan
9261;BME280;4667;42.726;23.252;2022-11-22T23:01:27;93999.91;;;8.61;nan
9261;BME280;4667;42.726;23.252;2022-11-22T23:03:56;94001.78;;;8.64;nan
9261;BME280;4667;42.726;23.252;2022-11-22T23:06:25;94005.56;;;8.74;nan
9261;BME280;4667;42.726;23.252;2022-11-22T23:08:52;94005.22;;;8.68;nan
9261;BME280;4667;42.726;23.252;2022-11-22T23:11:21;94004.47;;;8.68;nan
9261;BME280;4667;42.726;23.252;2022-11-22T23:14:10;94008.28;;;8.70;nan
9261;BME280;4667;42.726;23.252;2022-11-22T23:16:37;93999.06;;;8.68;nan
9261;BME280;4667;42.726;23.252;2022-11-22T23:19:04;94005.31;;;8.61;nan
9261;BME280;4667;42.726;23.252;2022-11-22T23:21:31;94011.75;;;8.37;nan
9261;BME280;4667;42.726;23.252;2022-11-22T23:23:57;94019.56;;;8.24;nan
9261;BME280;4667;42.726;23.252;2022-11-22T23:26:24;94006.94;;;8.14;nan
9261;BME280;4667;42.726;23.252;2022-11-22T23:28:51;94006.47;;;8.23;nan
9261;BME280;4667;42.726;23.252;2022-11-22T23:31:19;94001.44;;;8.28;nan
9261;BME280;4667;42.726;23.252;2022-11-22T23:33:46;93984.19;;;8.52;nan
9261;BME280;4667;42.726;23.252;2022-11-22T23:36:14;93981.78;;;8.62;nan
9261;BME280;4667;42.726;23.252;2022-11-22T23:38:42;93970.53;;;8.67;nan
9261;BME280;4667;42.726;23.252;2022-11-22T23:41:10;93974.47;;;8.62;nan
9261;BME280;4667;42.726;23.252;2022-11-22T23:43:37;93969.69;;;8.43;nan
9261;BME280;4667;42.726;23.252;2022-11-22T23:46:04;93972.38;;;8.43;nan
9261;BME280;4667;42.726;23.252;2022-11-22T23:48:34;93964.97;;;8.50;nan
9261;BME280;4667;42.726;23.252;2022-11-22T23:51:02;93978.84;;;8.49;nan
9261;BME280;4667;42.726;23.252;2022-11-22T23:53:29;93981.47;;;8.18;nan
9261;BME280;4667;42.726;23.252;2022-11-22T23:56:03;93977.06;;;8.35;nan
9261;BME280;4667;42.726;23.252;2022-11-22T23:58:29;93984.72;;;8.40;nan
